sensor_id;sensor_type;location;lat;lon;timestamp;P1;durP1;ratioP1;P2;durP2;ratioP2
11344;SDS011;5727;42.600;23.028;2023-05-07T00:01:17;15.97;;;9.03;;
11344;SDS011;5727;42.600;23.028;2023-05-07T00:04:01;13.40;;;8.67;;
11344;SDS011;5727;42.600;23.028;2023-05-07T00:06:28;14.07;;;9.47;;
11344;SDS011;5727;42.600;23.028;2023-05-07T00:08:55;15.10;;;8.83;;
11344;SDS011;5727;42.600;23.028;2023-05-07T00:11:24;12.93;;;8.50;;
11344;SDS011;5727;42.600;23.028;2023-05-07T00:13:52;14.33;;;9.93;;
11344;SDS011;5727;42.600;23.028;2023-05-07T00:16:19;17.37;;;10.00;;
11344;SDS011;5727;42.600;23.028;2023-05-07T00:18:46;12.43;;;8.50;;
11344;SDS011;5727;42.600;23.028;2023-05-07T00:21:13;13.63;;;8.93;;
11344;SDS011;5727;42.600;23.028;2023-05-07T00:23:39;11.37;;;8.53;;
11344;SDS011;5727;42.600;23.028;2023-05-07T00:26:06;13.77;;;8.60;;
11344;SDS011;5727;42.600;23.028;2023-05-07T00:28:33;13.37;;;8.77;;
11344;SDS011;5727;42.600;23.028;2023-05-07T00:31:01;12.60;;;9.47;;
11344;SDS011;5727;42.600;23.028;2023-05-07T00:33:27;15.50;;;8.87;;
11344;SDS011;5727;42.600;23.028;2023-05-07T00:35:54;16.00;;;9.87;;
11344;SDS011;5727;42.600;23.028;2023-05-07T00:38:21;20.30;;;10.40;;
11344;SDS011;5727;42.600;23.028;2023-05-07T00:40:48;18.60;;;10.03;;
11344;SDS011;5727;42.600;23.028;2023-05-07T00:43:15;19.17;;;10.13;;
11344;SDS011;5727;42.600;23.028;2023-05-07T00:45:42;16.37;;;10.30;;
11344;SDS011;5727;42.600;23.028;2023-05-07T00:48:11;16.03;;;9.57;;
11344;SDS011;5727;42.600;23.028;2023-05-07T00:50:38;17.30;;;9.43;;
11344;SDS011;5727;42.600;23.028;2023-05-07T00:53:05;20.70;;;10.23;;
11344;SDS011;5727;42.600;23.028;2023-05-07T00:55:32;24.67;;;9.73;;
11344;SDS011;5727;42.600;23.028;2023-05-07T00:57:59;16.07;;;8.97;;
11344;SDS011;5727;42.600;23.028;2023-05-07T01:00:26;20.67;;;9.53;;
11344;SDS011;5727;42.600;23.028;2023-05-07T01:02:53;14.67;;;9.10;;
11344;SDS011;5727;42.600;23.028;2023-05-07T01:05:21;14.67;;;9.53;;
11344;SDS011;5727;42.600;23.028;2023-05-07T01:07:50;14.90;;;9.77;;
11344;SDS011;5727;42.600;23.028;2023-05-07T01:10:19;13.97;;;8.93;;
11344;SDS011;5727;42.600;23.028;2023-05-07T01:12:46;12.80;;;9.10;;
11344;SDS011;5727;42.600;23.028;2023-05-07T01:15:14;15.17;;;8.97;;
11344;SDS011;5727;42.600;23.028;2023-05-07T01:17:41;19.63;;;8.97;;
11344;SDS011;5727;42.600;23.028;2023-05-07T01:20:09;15.87;;;9.07;;
11344;SDS011;5727;42.600;23.028;2023-05-07T01:22:38;16.17;;;8.80;;
11344;SDS011;5727;42.600;23.028;2023-05-07T01:25:05;14.97;;;8.13;;
11344;SDS011;5727;42.600;23.028;2023-05-07T01:27:33;18.60;;;8.80;;
11344;SDS011;5727;42.600;23.028;2023-05-07T01:30:00;14.07;;;8.60;;
11344;SDS011;5727;42.600;23.028;2023-05-07T01:32:29;16.23;;;9.00;;
11344;SDS011;5727;42.600;23.028;2023-05-07T01:35:00;19.20;;;8.93;;
11344;SDS011;5727;42.600;23.028;2023-05-07T01:37:29;17.93;;;8.83;;
11344;SDS011;5727;42.600;23.028;2023-05-07T01:39:57;17.53;;;9.13;;
11344;SDS011;5727;42.600;23.028;2023-05-07T01:42:24;13.10;;;8.30;;
11344;SDS011;5727;42.600;23.028;2023-05-07T01:44:51;12.93;;;8.30;;
11344;SDS011;5727;42.600;23.028;2023-05-07T01:47:17;10.67;;;7.90;;
11344;SDS011;5727;42.600;23.028;2023-05-07T01:49:45;12.87;;;8.77;;
11344;SDS011;5727;42.600;23.028;2023-05-07T01:52:11;17.47;;;9.67;;
11344;SDS011;5727;42.600;23.028;2023-05-07T01:54:39;23.83;;;10.23;;
11344;SDS011;5727;42.600;23.028;2023-05-07T01:57:07;14.80;;;8.40;;
11344;SDS011;5727;42.600;23.028;2023-05-07T01:59:34;20.27;;;8.87;;
11344;SDS011;5727;42.600;23.028;2023-05-07T02:02:00;17.40;;;9.17;;
11344;SDS011;5727;42.600;23.028;2023-05-07T02:04:27;14.60;;;7.73;;
11344;SDS011;5727;42.600;23.028;2023-05-07T02:06:54;26.10;;;10.53;;
11344;SDS011;5727;42.600;23.028;2023-05-07T02:09:20;15.40;;;8.57;;
11344;SDS011;5727;42.600;23.028;2023-05-07T02:11:48;23.60;;;9.80;;
11344;SDS011;5727;42.600;23.028;2023-05-07T02:14:16;15.10;;;9.63;;
11344;SDS011;5727;42.600;23.028;2023-05-07T02:16:42;19.03;;;10.13;;
11344;SDS011;5727;42.600;23.028;2023-05-07T02:19:09;19.60;;;9.23;;
11344;SDS011;5727;42.600;23.028;2023-05-07T02:21:36;20.70;;;9.37;;
11344;SDS011;5727;42.600;23.028;2023-05-07T02:24:03;22.70;;;8.93;;
11344;SDS011;5727;42.600;23.028;2023-05-07T02:26:30;15.10;;;9.30;;
11344;SDS011;5727;42.600;23.028;2023-05-07T02:28:56;16.87;;;9.93;;
11344;SDS011;5727;42.600;23.028;2023-05-07T02:31:24;17.30;;;10.43;;
11344;SDS011;5727;42.600;23.028;2023-05-07T02:33:51;18.80;;;9.20;;
11344;SDS011;5727;42.600;23.028;2023-05-07T02:36:18;18.67;;;9.40;;
11344;SDS011;5727;42.600;23.028;2023-05-07T02:38:45;14.70;;;9.63;;
11344;SDS011;5727;42.600;23.028;2023-05-07T02:41:11;11.60;;;9.03;;
11344;SDS011;5727;42.600;23.028;2023-05-07T02:43:38;14.73;;;8.70;;
11344;SDS011;5727;42.600;23.028;2023-05-07T02:46:05;15.80;;;8.97;;
11344;SDS011;5727;42.600;23.028;2023-05-07T02:48:34;13.13;;;8.67;;
11344;SDS011;5727;42.600;23.028;2023-05-07T02:51:01;11.77;;;8.20;;
11344;SDS011;5727;42.600;23.028;2023-05-07T02:53:29;13.30;;;9.03;;
11344;SDS011;5727;42.600;23.028;2023-05-07T02:55:56;13.20;;;8.27;;
11344;SDS011;5727;42.600;23.028;2023-05-07T02:58:24;18.57;;;7.87;;
11344;SDS011;5727;42.600;23.028;2023-05-07T03:00:51;12.00;;;8.07;;
11344;SDS011;5727;42.600;23.028;2023-05-07T03:03:19;8.90;;;6.80;;
11344;SDS011;5727;42.600;23.028;2023-05-07T03:05:47;8.90;;;7.13;;
11344;SDS011;5727;42.600;23.028;2023-05-07T03:08:14;7.40;;;6.37;;
11344;SDS011;5727;42.600;23.028;2023-05-07T03:10:41;8.87;;;7.10;;
11344;SDS011;5727;42.600;23.028;2023-05-07T03:13:07;11.27;;;7.00;;
11344;SDS011;5727;42.600;23.028;2023-05-07T03:15:34;10.73;;;7.70;;
11344;SDS011;5727;42.600;23.028;2023-05-07T03:18:01;8.87;;;6.80;;
11344;SDS011;5727;42.600;23.028;2023-05-07T03:20:28;10.33;;;6.93;;
11344;SDS011;5727;42.600;23.028;2023-05-07T03:22:56;9.97;;;7.73;;
11344;SDS011;5727;42.600;23.028;2023-05-07T03:25:23;11.07;;;7.53;;
11344;SDS011;5727;42.600;23.028;2023-05-07T03:27:50;8.33;;;7.03;;
11344;SDS011;5727;42.600;23.028;2023-05-07T03:30:17;9.13;;;7.10;;
11344;SDS011;5727;42.600;23.028;2023-05-07T03:32:43;10.90;;;7.47;;
11344;SDS011;5727;42.600;23.028;2023-05-07T03:35:10;11.00;;;8.20;;
11344;SDS011;5727;42.600;23.028;2023-05-07T03:37:37;13.47;;;9.90;;
11344;SDS011;5727;42.600;23.028;2023-05-07T03:40:06;17.93;;;10.63;;
11344;SDS011;5727;42.600;23.028;2023-05-07T03:42:35;16.73;;;11.50;;
11344;SDS011;5727;42.600;23.028;2023-05-07T03:45:02;15.50;;;10.53;;
11344;SDS011;5727;42.600;23.028;2023-05-07T03:47:29;16.27;;;11.00;;
11344;SDS011;5727;42.600;23.028;2023-05-07T03:49:56;13.60;;;10.87;;
11344;SDS011;5727;42.600;23.028;2023-05-07T03:52:23;16.57;;;10.87;;
11344;SDS011;5727;42.600;23.028;2023-05-07T03:54:51;14.63;;;10.40;;
11344;SDS011;5727;42.600;23.028;2023-05-07T03:57:20;15.50;;;10.30;;
11344;SDS011;5727;42.600;23.028;2023-05-07T03:59:47;14.43;;;10.67;;
11344;SDS011;5727;42.600;23.028;2023-05-07T04:02:13;12.90;;;10.13;;
11344;SDS011;5727;42.600;23.028;2023-05-07T04:04:40;15.47;;;10.07;;
11344;SDS011;5727;42.600;23.028;2023-05-07T04:07:07;14.70;;;10.07;;
11344;SDS011;5727;42.600;23.028;2023-05-07T04:09:34;16.10;;;10.93;;
11344;SDS011;5727;42.600;23.028;2023-05-07T04:12:00;16.30;;;11.27;;
11344;SDS011;5727;42.600;23.028;2023-05-07T04:14:28;20.60;;;12.10;;
11344;SDS011;5727;42.600;23.028;2023-05-07T04:16:57;18.20;;;12.13;;
11344;SDS011;5727;42.600;23.028;2023-05-07T04:19:24;19.33;;;11.50;;
11344;SDS011;5727;42.600;23.028;2023-05-07T04:21:50;21.80;;;11.87;;
11344;SDS011;5727;42.600;23.028;2023-05-07T04:24:17;16.37;;;10.97;;
11344;SDS011;5727;42.600;23.028;2023-05-07T04:26:44;16.40;;;10.90;;
11344;SDS011;5727;42.600;23.028;2023-05-07T04:29:10;15.17;;;10.97;;
11344;SDS011;5727;42.600;23.028;2023-05-07T04:31:39;18.83;;;10.70;;
11344;SDS011;5727;42.600;23.028;2023-05-07T04:34:05;17.90;;;11.10;;
11344;SDS011;5727;42.600;23.028;2023-05-07T04:36:32;14.77;;;11.17;;
11344;SDS011;5727;42.600;23.028;2023-05-07T04:38:59;18.37;;;11.27;;
11344;SDS011;5727;42.600;23.028;2023-05-07T04:41:25;13.63;;;11.23;;
11344;SDS011;5727;42.600;23.028;2023-05-07T04:43:52;13.63;;;10.83;;
11344;SDS011;5727;42.600;23.028;2023-05-07T04:46:19;14.73;;;10.83;;
11344;SDS011;5727;42.600;23.028;2023-05-07T04:48:47;15.07;;;11.00;;
11344;SDS011;5727;42.600;23.028;2023-05-07T04:51:14;15.53;;;11.07;;
11344;SDS011;5727;42.600;23.028;2023-05-07T04:53:41;12.03;;;10.43;;
11344;SDS011;5727;42.600;23.028;2023-05-07T04:56:08;12.77;;;10.20;;
11344;SDS011;5727;42.600;23.028;2023-05-07T04:58:35;12.70;;;10.00;;
11344;SDS011;5727;42.600;23.028;2023-05-07T05:01:02;13.50;;;10.43;;
11344;SDS011;5727;42.600;23.028;2023-05-07T05:03:28;12.77;;;11.07;;
11344;SDS011;5727;42.600;23.028;2023-05-07T05:05:57;13.63;;;10.13;;
11344;SDS011;5727;42.600;23.028;2023-05-07T05:08:24;17.07;;;10.50;;
11344;SDS011;5727;42.600;23.028;2023-05-07T05:10:51;15.67;;;10.57;;
11344;SDS011;5727;42.600;23.028;2023-05-07T05:13:18;14.07;;;9.77;;
11344;SDS011;5727;42.600;23.028;2023-05-07T05:15:45;16.13;;;10.10;;
11344;SDS011;5727;42.600;23.028;2023-05-07T05:18:12;19.73;;;9.47;;
11344;SDS011;5727;42.600;23.028;2023-05-07T05:20:39;16.97;;;10.43;;
11344;SDS011;5727;42.600;23.028;2023-05-07T05:23:07;13.90;;;9.37;;
11344;SDS011;5727;42.600;23.028;2023-05-07T05:25:34;15.57;;;9.67;;
11344;SDS011;5727;42.600;23.028;2023-05-07T05:28:00;11.77;;;9.30;;
11344;SDS011;5727;42.600;23.028;2023-05-07T05:30:27;15.10;;;10.23;;
11344;SDS011;5727;42.600;23.028;2023-05-07T05:32:54;13.00;;;9.63;;
11344;SDS011;5727;42.600;23.028;2023-05-07T05:35:21;12.60;;;10.27;;
11344;SDS011;5727;42.600;23.028;2023-05-07T05:37:48;16.63;;;9.20;;
11344;SDS011;5727;42.600;23.028;2023-05-07T05:40:16;14.73;;;9.00;;
11344;SDS011;5727;42.600;23.028;2023-05-07T05:42:43;13.27;;;9.80;;
11344;SDS011;5727;42.600;23.028;2023-05-07T05:45:10;17.03;;;10.47;;
11344;SDS011;5727;42.600;23.028;2023-05-07T05:47:37;12.60;;;9.07;;
11344;SDS011;5727;42.600;23.028;2023-05-07T05:50:04;15.00;;;9.53;;
11344;SDS011;5727;42.600;23.028;2023-05-07T05:52:34;14.57;;;10.07;;
11344;SDS011;5727;42.600;23.028;2023-05-07T05:55:00;16.10;;;9.80;;
11344;SDS011;5727;42.600;23.028;2023-05-07T05:57:28;14.03;;;9.33;;
11344;SDS011;5727;42.600;23.028;2023-05-07T05:59:55;11.60;;;9.43;;
11344;SDS011;5727;42.600;23.028;2023-05-07T06:02:22;13.83;;;9.33;;
11344;SDS011;5727;42.600;23.028;2023-05-07T06:04:49;13.60;;;10.37;;
11344;SDS011;5727;42.600;23.028;2023-05-07T06:07:16;13.57;;;9.77;;
11344;SDS011;5727;42.600;23.028;2023-05-07T06:09:43;13.80;;;9.27;;
11344;SDS011;5727;42.600;23.028;2023-05-07T06:12:09;16.67;;;9.80;;
11344;SDS011;5727;42.600;23.028;2023-05-07T06:14:37;13.03;;;9.50;;
11344;SDS011;5727;42.600;23.028;2023-05-07T06:17:05;12.07;;;8.97;;
11344;SDS011;5727;42.600;23.028;2023-05-07T06:19:33;13.17;;;9.53;;
11344;SDS011;5727;42.600;23.028;2023-05-07T06:22:00;13.20;;;9.17;;
11344;SDS011;5727;42.600;23.028;2023-05-07T06:24:27;18.47;;;9.00;;
11344;SDS011;5727;42.600;23.028;2023-05-07T06:26:54;13.80;;;8.77;;
11344;SDS011;5727;42.600;23.028;2023-05-07T06:29:21;11.67;;;8.57;;
11344;SDS011;5727;42.600;23.028;2023-05-07T06:31:49;13.67;;;8.40;;
11344;SDS011;5727;42.600;23.028;2023-05-07T06:34:16;14.90;;;8.20;;
11344;SDS011;5727;42.600;23.028;2023-05-07T06:36:42;15.03;;;8.53;;
11344;SDS011;5727;42.600;23.028;2023-05-07T06:39:09;11.87;;;8.23;;
11344;SDS011;5727;42.600;23.028;2023-05-07T06:41:36;15.27;;;8.47;;
11344;SDS011;5727;42.600;23.028;2023-05-07T06:44:03;12.40;;;7.30;;
11344;SDS011;5727;42.600;23.028;2023-05-07T06:46:30;11.57;;;6.83;;
11344;SDS011;5727;42.600;23.028;2023-05-07T06:48:58;10.20;;;6.20;;
11344;SDS011;5727;42.600;23.028;2023-05-07T06:51:24;10.57;;;6.80;;
11344;SDS011;5727;42.600;23.028;2023-05-07T06:53:51;7.27;;;6.43;;
11344;SDS011;5727;42.600;23.028;2023-05-07T06:56:18;9.33;;;6.67;;
11344;SDS011;5727;42.600;23.028;2023-05-07T06:58:46;8.50;;;5.63;;
11344;SDS011;5727;42.600;23.028;2023-05-07T07:01:12;6.83;;;5.60;;
11344;SDS011;5727;42.600;23.028;2023-05-07T07:03:40;10.33;;;6.13;;
11344;SDS011;5727;42.600;23.028;2023-05-07T07:06:08;9.60;;;6.47;;
11344;SDS011;5727;42.600;23.028;2023-05-07T07:08:34;8.50;;;6.23;;
11344;SDS011;5727;42.600;23.028;2023-05-07T07:11:03;9.13;;;5.40;;
11344;SDS011;5727;42.600;23.028;2023-05-07T07:13:30;8.03;;;5.50;;
11344;SDS011;5727;42.600;23.028;2023-05-07T07:15:57;8.27;;;5.67;;
11344;SDS011;5727;42.600;23.028;2023-05-07T07:18:24;6.63;;;5.73;;
11344;SDS011;5727;42.600;23.028;2023-05-07T07:20:50;6.87;;;5.37;;
11344;SDS011;5727;42.600;23.028;2023-05-07T07:23:18;6.83;;;4.97;;
11344;SDS011;5727;42.600;23.028;2023-05-07T07:25:45;9.07;;;5.33;;
11344;SDS011;5727;42.600;23.028;2023-05-07T07:28:12;6.83;;;5.40;;
11344;SDS011;5727;42.600;23.028;2023-05-07T07:30:39;7.43;;;4.80;;
11344;SDS011;5727;42.600;23.028;2023-05-07T07:33:05;8.60;;;5.40;;
11344;SDS011;5727;42.600;23.028;2023-05-07T07:35:32;5.73;;;5.10;;
11344;SDS011;5727;42.600;23.028;2023-05-07T07:37:59;7.60;;;5.17;;
11344;SDS011;5727;42.600;23.028;2023-05-07T07:40:27;6.80;;;4.90;;
11344;SDS011;5727;42.600;23.028;2023-05-07T07:42:54;9.80;;;5.50;;
11344;SDS011;5727;42.600;23.028;2023-05-07T07:45:21;7.50;;;5.40;;
11344;SDS011;5727;42.600;23.028;2023-05-07T07:47:48;6.30;;;4.57;;
11344;SDS011;5727;42.600;23.028;2023-05-07T07:50:15;4.93;;;4.47;;
11344;SDS011;5727;42.600;23.028;2023-05-07T07:52:41;6.63;;;5.00;;
11344;SDS011;5727;42.600;23.028;2023-05-07T07:55:10;6.80;;;4.40;;
11344;SDS011;5727;42.600;23.028;2023-05-07T07:57:38;7.40;;;4.50;;
11344;SDS011;5727;42.600;23.028;2023-05-07T08:00:05;6.03;;;4.50;;
11344;SDS011;5727;42.600;23.028;2023-05-07T08:02:33;6.13;;;4.37;;
11344;SDS011;5727;42.600;23.028;2023-05-07T08:04:59;5.50;;;4.40;;
11344;SDS011;5727;42.600;23.028;2023-05-07T08:07:26;7.33;;;4.30;;
11344;SDS011;5727;42.600;23.028;2023-05-07T08:09:53;5.43;;;3.77;;
11344;SDS011;5727;42.600;23.028;2023-05-07T08:12:19;6.73;;;4.30;;
11344;SDS011;5727;42.600;23.028;2023-05-07T08:14:48;8.33;;;4.10;;
11344;SDS011;5727;42.600;23.028;2023-05-07T08:17:14;7.77;;;4.60;;
11344;SDS011;5727;42.600;23.028;2023-05-07T08:19:41;9.03;;;4.63;;
11344;SDS011;5727;42.600;23.028;2023-05-07T08:22:08;8.30;;;5.53;;
11344;SDS011;5727;42.600;23.028;2023-05-07T08:24:35;5.67;;;5.03;;
11344;SDS011;5727;42.600;23.028;2023-05-07T08:27:02;6.33;;;4.87;;
11344;SDS011;5727;42.600;23.028;2023-05-07T08:29:29;6.87;;;4.60;;
11344;SDS011;5727;42.600;23.028;2023-05-07T08:31:57;9.43;;;4.30;;
11344;SDS011;5727;42.600;23.028;2023-05-07T08:34:24;7.10;;;4.30;;
11344;SDS011;5727;42.600;23.028;2023-05-07T08:36:50;7.53;;;4.03;;
11344;SDS011;5727;42.600;23.028;2023-05-07T08:39:18;8.37;;;4.33;;
11344;SDS011;5727;42.600;23.028;2023-05-07T08:41:44;7.90;;;5.03;;
11344;SDS011;5727;42.600;23.028;2023-05-07T08:44:12;6.60;;;4.57;;
11344;SDS011;5727;42.600;23.028;2023-05-07T08:46:40;6.20;;;4.73;;
11344;SDS011;5727;42.600;23.028;2023-05-07T08:49:10;5.73;;;4.00;;
11344;SDS011;5727;42.600;23.028;2023-05-07T08:51:36;6.40;;;4.37;;
11344;SDS011;5727;42.600;23.028;2023-05-07T08:54:04;4.17;;;3.77;;
11344;SDS011;5727;42.600;23.028;2023-05-07T08:56:32;5.17;;;4.67;;
11344;SDS011;5727;42.600;23.028;2023-05-07T08:58:59;5.33;;;3.80;;
11344;SDS011;5727;42.600;23.028;2023-05-07T09:01:25;6.53;;;4.17;;
11344;SDS011;5727;42.600;23.028;2023-05-07T09:03:52;6.53;;;4.13;;
11344;SDS011;5727;42.600;23.028;2023-05-07T09:06:20;6.57;;;4.40;;
11344;SDS011;5727;42.600;23.028;2023-05-07T09:08:50;6.77;;;4.00;;
11344;SDS011;5727;42.600;23.028;2023-05-07T09:11:21;3.60;;;3.30;;
11344;SDS011;5727;42.600;23.028;2023-05-07T09:13:49;4.67;;;3.77;;
11344;SDS011;5727;42.600;23.028;2023-05-07T09:16:21;4.37;;;3.80;;
11344;SDS011;5727;42.600;23.028;2023-05-07T09:18:50;4.77;;;3.80;;
11344;SDS011;5727;42.600;23.028;2023-05-07T09:21:18;10.20;;;6.67;;
11344;SDS011;5727;42.600;23.028;2023-05-07T09:23:47;12.73;;;7.87;;
11344;SDS011;5727;42.600;23.028;2023-05-07T09:26:14;6.83;;;3.83;;
11344;SDS011;5727;42.600;23.028;2023-05-07T09:28:41;6.60;;;5.17;;
11344;SDS011;5727;42.600;23.028;2023-05-07T09:31:08;10.80;;;4.77;;
11344;SDS011;5727;42.600;23.028;2023-05-07T09:33:38;4.37;;;3.17;;
11344;SDS011;5727;42.600;23.028;2023-05-07T09:36:08;4.00;;;2.83;;
11344;SDS011;5727;42.600;23.028;2023-05-07T09:38:36;3.10;;;2.80;;
11344;SDS011;5727;42.600;23.028;2023-05-07T09:41:05;2.57;;;2.13;;
11344;SDS011;5727;42.600;23.028;2023-05-07T09:43:34;5.50;;;2.47;;
11344;SDS011;5727;42.600;23.028;2023-05-07T09:46:08;3.60;;;2.33;;
11344;SDS011;5727;42.600;23.028;2023-05-07T09:48:38;6.13;;;3.13;;
11344;SDS011;5727;42.600;23.028;2023-05-07T09:51:08;2.80;;;2.57;;
11344;SDS011;5727;42.600;23.028;2023-05-07T09:53:44;5.23;;;2.90;;
11344;SDS011;5727;42.600;23.028;2023-05-07T09:56:14;5.33;;;2.40;;
11344;SDS011;5727;42.600;23.028;2023-05-07T09:58:41;4.17;;;2.87;;
11344;SDS011;5727;42.600;23.028;2023-05-07T10:01:10;2.53;;;2.33;;
11344;SDS011;5727;42.600;23.028;2023-05-07T10:03:37;2.80;;;2.50;;
11344;SDS011;5727;42.600;23.028;2023-05-07T10:06:07;3.57;;;2.87;;
11344;SDS011;5727;42.600;23.028;2023-05-07T10:08:35;3.73;;;2.60;;
11344;SDS011;5727;42.600;23.028;2023-05-07T10:11:02;11.57;;;2.90;;
11344;SDS011;5727;42.600;23.028;2023-05-07T10:13:32;3.23;;;2.47;;
11344;SDS011;5727;42.600;23.028;2023-05-07T10:16:03;4.53;;;2.60;;
11344;SDS011;5727;42.600;23.028;2023-05-07T10:18:30;3.30;;;2.63;;
11344;SDS011;5727;42.600;23.028;2023-05-07T10:20:59;4.00;;;2.73;;
11344;SDS011;5727;42.600;23.028;2023-05-07T10:23:30;4.73;;;2.50;;
11344;SDS011;5727;42.600;23.028;2023-05-07T10:25:58;3.27;;;2.53;;
11344;SDS011;5727;42.600;23.028;2023-05-07T10:28:29;3.07;;;2.63;;
11344;SDS011;5727;42.600;23.028;2023-05-07T10:31:03;3.97;;;2.17;;
11344;SDS011;5727;42.600;23.028;2023-05-07T10:33:41;3.37;;;2.33;;
11344;SDS011;5727;42.600;23.028;2023-05-07T10:36:11;5.27;;;2.43;;
11344;SDS011;5727;42.600;23.028;2023-05-07T10:38:38;5.33;;;2.70;;
11344;SDS011;5727;42.600;23.028;2023-05-07T10:41:06;4.13;;;2.10;;
11344;SDS011;5727;42.600;23.028;2023-05-07T10:43:41;3.67;;;2.33;;
11344;SDS011;5727;42.600;23.028;2023-05-07T10:46:09;2.50;;;2.30;;
11344;SDS011;5727;42.600;23.028;2023-05-07T10:51:36;2.67;;;2.17;;
11344;SDS011;5727;42.600;23.028;2023-05-07T10:54:19;5.17;;;2.30;;
11344;SDS011;5727;42.600;23.028;2023-05-07T10:56:47;4.07;;;2.20;;
11344;SDS011;5727;42.600;23.028;2023-05-07T10:59:36;3.33;;;2.37;;
11344;SDS011;5727;42.600;23.028;2023-05-07T11:02:09;3.20;;;2.27;;
11344;SDS011;5727;42.600;23.028;2023-05-07T11:04:36;3.27;;;2.03;;
11344;SDS011;5727;42.600;23.028;2023-05-07T11:09:56;2.57;;;2.20;;
11344;SDS011;5727;42.600;23.028;2023-05-07T11:12:48;3.57;;;2.23;;
11344;SDS011;5727;42.600;23.028;2023-05-07T11:15:36;2.67;;;2.20;;
11344;SDS011;5727;42.600;23.028;2023-05-07T11:18:04;2.60;;;2.00;;
11344;SDS011;5727;42.600;23.028;2023-05-07T11:26:27;4.77;;;2.33;;
11344;SDS011;5727;42.600;23.028;2023-05-07T11:28:55;3.13;;;1.83;;
11344;SDS011;5727;42.600;23.028;2023-05-07T11:31:23;2.67;;;2.10;;
11344;SDS011;5727;42.600;23.028;2023-05-07T11:33:53;2.57;;;2.20;;
11344;SDS011;5727;42.600;23.028;2023-05-07T11:36:22;3.63;;;1.90;;
11344;SDS011;5727;42.600;23.028;2023-05-07T11:38:51;2.77;;;1.80;;
11344;SDS011;5727;42.600;23.028;2023-05-07T11:41:17;6.60;;;2.27;;
11344;SDS011;5727;42.600;23.028;2023-05-07T11:43:56;3.23;;;1.80;;
11344;SDS011;5727;42.600;23.028;2023-05-07T11:46:26;3.63;;;1.70;;
11344;SDS011;5727;42.600;23.028;2023-05-07T11:48:53;3.03;;;1.60;;
11344;SDS011;5727;42.600;23.028;2023-05-07T11:51:20;3.33;;;1.50;;
11344;SDS011;5727;42.600;23.028;2023-05-07T11:53:49;3.30;;;1.55;;
11344;SDS011;5727;42.600;23.028;2023-05-07T11:56:17;2.78;;;1.92;;
11344;SDS011;5727;42.600;23.028;2023-05-07T11:58:45;2.40;;;1.45;;
11344;SDS011;5727;42.600;23.028;2023-05-07T12:01:13;3.33;;;1.60;;
11344;SDS011;5727;42.600;23.028;2023-05-07T12:03:43;4.55;;;1.42;;
11344;SDS011;5727;42.600;23.028;2023-05-07T12:06:11;2.00;;;1.40;;
11344;SDS011;5727;42.600;23.028;2023-05-07T12:08:39;3.65;;;1.73;;
11344;SDS011;5727;42.600;23.028;2023-05-07T12:11:06;3.70;;;1.60;;
11344;SDS011;5727;42.600;23.028;2023-05-07T12:13:34;4.10;;;1.38;;
11344;SDS011;5727;42.600;23.028;2023-05-07T12:16:01;4.72;;;1.77;;
11344;SDS011;5727;42.600;23.028;2023-05-07T12:18:29;2.55;;;1.40;;
11344;SDS011;5727;42.600;23.028;2023-05-07T12:20:58;5.40;;;1.70;;
11344;SDS011;5727;42.600;23.028;2023-05-07T12:23:25;2.55;;;1.48;;
11344;SDS011;5727;42.600;23.028;2023-05-07T12:25:53;2.08;;;1.30;;
11344;SDS011;5727;42.600;23.028;2023-05-07T12:28:20;2.92;;;1.33;;
11344;SDS011;5727;42.600;23.028;2023-05-07T12:30:47;2.60;;;1.45;;
11344;SDS011;5727;42.600;23.028;2023-05-07T12:33:16;3.78;;;1.70;;
11344;SDS011;5727;42.600;23.028;2023-05-07T12:35:46;2.17;;;1.50;;
11344;SDS011;5727;42.600;23.028;2023-05-07T12:38:15;4.03;;;1.58;;
11344;SDS011;5727;42.600;23.028;2023-05-07T12:40:44;3.63;;;1.55;;
11344;SDS011;5727;42.600;23.028;2023-05-07T12:43:16;5.15;;;1.95;;
11344;SDS011;5727;42.600;23.028;2023-05-07T12:45:43;2.50;;;1.60;;
11344;SDS011;5727;42.600;23.028;2023-05-07T12:48:11;2.85;;;1.45;;
11344;SDS011;5727;42.600;23.028;2023-05-07T12:50:38;3.53;;;1.75;;
11344;SDS011;5727;42.600;23.028;2023-05-07T12:53:05;1.65;;;1.38;;
11344;SDS011;5727;42.600;23.028;2023-05-07T12:55:41;3.42;;;1.63;;
11344;SDS011;5727;42.600;23.028;2023-05-07T12:58:14;3.50;;;1.25;;
11344;SDS011;5727;42.600;23.028;2023-05-07T13:00:42;4.80;;;1.55;;
11344;SDS011;5727;42.600;23.028;2023-05-07T13:03:09;2.60;;;1.27;;
11344;SDS011;5727;42.600;23.028;2023-05-07T13:05:36;3.75;;;1.33;;
11344;SDS011;5727;42.600;23.028;2023-05-07T13:08:03;1.80;;;1.10;;
11344;SDS011;5727;42.600;23.028;2023-05-07T13:10:30;2.15;;;1.40;;
11344;SDS011;5727;42.600;23.028;2023-05-07T13:12:59;2.72;;;1.58;;
11344;SDS011;5727;42.600;23.028;2023-05-07T13:15:25;2.83;;;1.77;;
11344;SDS011;5727;42.600;23.028;2023-05-07T13:17:52;3.17;;;1.40;;
11344;SDS011;5727;42.600;23.028;2023-05-07T13:20:19;3.40;;;1.85;;
11344;SDS011;5727;42.600;23.028;2023-05-07T13:22:45;6.28;;;1.58;;
11344;SDS011;5727;42.600;23.028;2023-05-07T13:25:12;3.38;;;1.88;;
11344;SDS011;5727;42.600;23.028;2023-05-07T13:27:39;3.80;;;1.70;;
11344;SDS011;5727;42.600;23.028;2023-05-07T13:30:07;4.78;;;1.90;;
11344;SDS011;5727;42.600;23.028;2023-05-07T13:32:34;4.93;;;1.83;;
11344;SDS011;5727;42.600;23.028;2023-05-07T13:35:01;4.05;;;1.85;;
11344;SDS011;5727;42.600;23.028;2023-05-07T13:37:28;3.00;;;1.83;;
11344;SDS011;5727;42.600;23.028;2023-05-07T13:39:55;1.90;;;1.50;;
11344;SDS011;5727;42.600;23.028;2023-05-07T13:42:21;2.63;;;1.60;;
11344;SDS011;5727;42.600;23.028;2023-05-07T13:44:48;3.55;;;1.63;;
11344;SDS011;5727;42.600;23.028;2023-05-07T13:47:16;2.88;;;1.50;;
11344;SDS011;5727;42.600;23.028;2023-05-07T13:49:43;3.30;;;1.73;;
11344;SDS011;5727;42.600;23.028;2023-05-07T13:52:09;4.78;;;1.60;;
11344;SDS011;5727;42.600;23.028;2023-05-07T13:54:36;1.70;;;1.42;;
11344;SDS011;5727;42.600;23.028;2023-05-07T13:57:03;2.60;;;1.77;;
11344;SDS011;5727;42.600;23.028;2023-05-07T13:59:30;3.58;;;1.98;;
11344;SDS011;5727;42.600;23.028;2023-05-07T14:01:57;3.25;;;1.83;;
11344;SDS011;5727;42.600;23.028;2023-05-07T14:04:25;2.90;;;1.85;;
11344;SDS011;5727;42.600;23.028;2023-05-07T14:06:51;2.80;;;1.60;;
11344;SDS011;5727;42.600;23.028;2023-05-07T14:09:18;3.60;;;1.90;;
11344;SDS011;5727;42.600;23.028;2023-05-07T14:11:45;1.93;;;1.57;;
11344;SDS011;5727;42.600;23.028;2023-05-07T14:14:12;3.43;;;1.33;;
11344;SDS011;5727;42.600;23.028;2023-05-07T14:16:39;3.08;;;2.03;;
11344;SDS011;5727;42.600;23.028;2023-05-07T14:19:06;1.90;;;1.60;;
11344;SDS011;5727;42.600;23.028;2023-05-07T14:21:34;3.10;;;1.75;;
11344;SDS011;5727;42.600;23.028;2023-05-07T14:24:00;3.03;;;1.65;;
11344;SDS011;5727;42.600;23.028;2023-05-07T14:26:27;2.80;;;1.70;;
11344;SDS011;5727;42.600;23.028;2023-05-07T14:28:54;2.78;;;1.67;;
11344;SDS011;5727;42.600;23.028;2023-05-07T14:31:23;6.20;;;1.67;;
11344;SDS011;5727;42.600;23.028;2023-05-07T14:33:50;4.25;;;2.13;;
11344;SDS011;5727;42.600;23.028;2023-05-07T14:36:17;2.65;;;1.40;;
11344;SDS011;5727;42.600;23.028;2023-05-07T14:38:46;3.67;;;1.58;;
11344;SDS011;5727;42.600;23.028;2023-05-07T14:41:13;4.70;;;1.98;;
11344;SDS011;5727;42.600;23.028;2023-05-07T14:43:40;3.40;;;2.15;;
11344;SDS011;5727;42.600;23.028;2023-05-07T14:46:06;2.15;;;1.33;;
11344;SDS011;5727;42.600;23.028;2023-05-07T14:48:33;2.95;;;1.25;;
11344;SDS011;5727;42.600;23.028;2023-05-07T14:51:00;1.67;;;1.13;;
11344;SDS011;5727;42.600;23.028;2023-05-07T14:53:26;2.42;;;1.30;;
11344;SDS011;5727;42.600;23.028;2023-05-07T14:55:54;2.30;;;1.42;;